PABE/BET METAR and TAF weather

Enter ICAO airport designator
Station Type Date Time Source
PABE METAR 2019/12/12 16:53 UTC NOAA

PABE 121653Z 03009KT 10SM OVC055 M04/M07 A2923 RMK AO2 UPB45E48 SLP899 P0000 T10441067


Station Type Date Time Source
PABE Decoded METAR 2019/12/12 16:53 UTC NOAA

BETHEL AIRPORT, AK, United States (PABE) 60-47N 161-50W 46M
Dec 12, 2019 - 11:53 AM EST / 2019.12.12 1653 UTC
Wind: from the NNE (030 degrees) at 10 MPH (9 KT):0
Visibility: 10 mile(s):0
Sky conditions: overcast
Precipitation last hour: A trace
Temperature: 24.1 F (-4.4 C)
Windchill: 14 F (-10 C):1
Dew Point: 19.9 F (-6.7 C)
Relative Humidity: 83%
Pressure (altimeter): 29.23 in. Hg (989 hPa)
ob: PABE 121653Z 03009KT 10SM OVC055 M04/M07 A2923 RMK AO2 UPB45E48 SLP899 P0000 T10441067
cycle: 17

Station Type Date Time Source
PABE TAF 2019/12/12 12:27 UTC NOAA

TAF PABE 121125Z 1212/1312 03011KT P6SM VCSH BKN050 OVC070

Example: see airport list